createdAt,value
2017-02-23T00:01:27.509Z,0
2017-02-23T00:06:43.226Z,0
2017-02-23T00:11:59.564Z,0
2017-02-23T00:17:15.591Z,0
2017-02-23T00:22:31.881Z,0
2017-02-23T00:27:47.937Z,0
2017-02-23T00:33:04.587Z,0
2017-02-23T00:38:20.265Z,0
2017-02-23T00:43:35.863Z,0
2017-02-23T00:48:51.877Z,0
2017-02-23T00:54:09.936Z,0
2017-02-23T00:59:26.251Z,0
2017-02-23T01:04:42.060Z,0
2017-02-23T01:09:57.717Z,0
2017-02-23T01:15:13.474Z,0
2017-02-23T01:20:30.231Z,0
2017-02-23T01:25:46.443Z,0
2017-02-23T01:31:02.088Z,0
2017-02-23T01:36:17.665Z,0
2017-02-23T01:41:33.858Z,0
2017-02-23T01:46:49.660Z,0
2017-02-23T01:52:05.374Z,0
2017-02-23T01:57:20.967Z,0
2017-02-23T02:02:36.585Z,0
2017-02-23T02:07:52.558Z,0
2017-02-23T02:13:08.242Z,0
2017-02-23T02:18:24.328Z,0
2017-02-23T02:23:40.189Z,0
2017-02-23T02:28:55.751Z,0
2017-02-23T02:34:11.330Z,0
2017-02-23T02:39:26.955Z,0
2017-02-23T02:44:43.157Z,0
2017-02-23T02:49:59.066Z,0
2017-02-23T02:55:14.652Z,0
2017-02-23T03:00:30.221Z,0
2017-02-23T03:05:45.837Z,0
2017-02-23T03:11:01.438Z,0
2017-02-23T03:16:17.580Z,0
2017-02-23T03:21:33.344Z,0
2017-02-23T03:26:48.917Z,0
2017-02-23T03:32:04.493Z,0
2017-02-23T03:37:20.317Z,0
2017-02-23T03:42:36.378Z,0
2017-02-23T03:47:52.509Z,0
2017-02-23T03:53:09.392Z,0
2017-02-23T03:58:25.286Z,0
2017-02-23T04:03:41.155Z,0
2017-02-23T04:08:56.751Z,0
2017-02-23T04:14:12.335Z,0
2017-02-23T04:19:28.106Z,0
2017-02-23T04:24:43.681Z,0
2017-02-23T04:29:59.393Z,0
2017-02-23T04:35:15.597Z,0
2017-02-23T04:40:31.416Z,0
2017-02-23T04:45:47.000Z,0
2017-02-23T04:51:02.564Z,0
2017-02-23T04:56:18.156Z,0
2017-02-23T05:01:33.723Z,0
2017-02-23T05:06:49.346Z,0
2017-02-23T05:12:05.002Z,0
2017-02-23T05:17:20.639Z,0
2017-02-23T05:22:36.237Z,0
2017-02-23T05:27:51.853Z,0
2017-02-23T05:33:08.144Z,0
2017-02-23T05:38:24.084Z,0
2017-02-23T05:43:39.663Z,0
2017-02-23T05:48:55.233Z,0
2017-02-23T05:54:10.844Z,0
2017-02-23T05:59:27.220Z,0
2017-02-23T06:04:42.906Z,0
2017-02-23T06:09:58.513Z,0
2017-02-23T06:15:14.079Z,0
2017-02-23T06:20:29.648Z,0
2017-02-23T06:25:45.253Z,0
2017-02-23T06:31:00.862Z,0
2017-02-23T06:36:16.464Z,0
2017-02-23T06:41:33.618Z,0
2017-02-23T06:46:49.229Z,0
2017-02-23T06:52:05.563Z,0
2017-02-23T06:57:21.209Z,0
2017-02-23T07:02:36.849Z,0
2017-02-23T07:07:52.459Z,0
2017-02-23T07:13:08.127Z,0
2017-02-23T07:18:24.090Z,0
2017-02-23T07:23:40.324Z,0
2017-02-23T07:28:55.884Z,0
2017-02-23T07:34:11.459Z,0
2017-02-23T07:39:27.075Z,0
2017-02-23T07:44:42.792Z,0
2017-02-23T07:49:58.653Z,0
2017-02-23T07:55:14.228Z,0
2017-02-23T08:00:29.797Z,0
2017-02-23T08:05:45.365Z,0
2017-02-23T08:11:01.141Z,0
2017-02-23T08:16:16.723Z,0
2017-02-23T08:21:33.216Z,0
2017-02-23T08:26:49.124Z,0
2017-02-23T08:32:05.571Z,0
2017-02-23T08:37:22.151Z,0
2017-02-23T08:42:37.930Z,5
2017-02-23T08:47:53.600Z,5
2017-02-23T08:53:09.262Z,5
2017-02-23T08:58:25.494Z,5
2017-02-23T09:03:43.193Z,5
2017-02-23T09:08:59.240Z,10
2017-02-23T09:14:14.826Z,10
2017-02-23T09:19:30.425Z,10
2017-02-23T09:24:46.016Z,15
2017-02-23T09:30:01.854Z,15
2017-02-23T09:35:18.133Z,20
2017-02-23T09:40:34.302Z,25
2017-02-23T09:45:50.019Z,25
2017-02-23T09:51:05.793Z,30
2017-02-23T09:56:21.499Z,40
2017-02-23T10:01:37.647Z,45
2017-02-23T10:06:53.406Z,50
2017-02-23T10:12:10.438Z,55
2017-02-23T10:17:26.655Z,55
2017-02-23T10:22:42.594Z,60
2017-02-23T10:27:58.201Z,65
2017-02-23T10:33:13.990Z,65
2017-02-23T10:38:30.169Z,65
2017-02-23T10:43:46.197Z,70
2017-02-23T10:49:01.828Z,75
2017-02-23T10:54:17.886Z,75
2017-02-23T10:59:34.563Z,80
2017-02-23T11:04:50.224Z,80
2017-02-23T11:10:06.657Z,80
2017-02-23T11:15:22.407Z,85
2017-02-23T11:20:38.299Z,65
2017-02-23T11:25:54.917Z,35
2017-02-23T11:31:10.567Z,85
2017-02-23T11:36:27.254Z,90
2017-02-23T11:41:44.328Z,55
2017-02-23T11:46:59.964Z,90
2017-02-23T11:52:15.595Z,90
2017-02-23T11:57:32.654Z,20
2017-02-23T12:02:48.337Z,10
2017-02-23T12:08:04.011Z,15
2017-02-23T12:13:19.631Z,15
2017-02-23T12:18:35.821Z,15
2017-02-23T12:23:51.467Z,10
2017-02-23T12:29:07.101Z,10
2017-02-23T12:34:23.683Z,15
2017-02-23T12:39:39.797Z,25
2017-02-23T12:44:57.664Z,15
2017-02-23T12:50:13.352Z,10
2017-02-23T12:55:29.028Z,15
2017-02-23T13:00:45.876Z,25
2017-02-23T13:06:01.883Z,10
2017-02-23T13:11:17.572Z,10
2017-02-23T13:16:33.167Z,10
2017-02-23T13:21:48.773Z,10
2017-02-23T13:27:05.450Z,10
2017-02-23T13:32:21.784Z,10
2017-02-23T13:37:38.289Z,10
2017-02-23T13:42:54.045Z,10
2017-02-23T13:48:09.642Z,10
2017-02-23T13:53:26.708Z,10
2017-02-23T13:58:43.057Z,5
2017-02-23T14:03:59.517Z,5
2017-02-23T14:09:16.983Z,10
2017-02-23T14:14:34.386Z,5
2017-02-23T14:19:50.069Z,5
2017-02-23T14:25:09.001Z,5
2017-02-23T14:30:24.771Z,5
2017-02-23T14:35:40.984Z,5
2017-02-23T14:40:56.968Z,5
2017-02-23T14:46:13.280Z,5
2017-02-23T14:51:30.827Z,5
2017-02-23T14:56:47.439Z,5
2017-02-23T15:02:03.705Z,5
2017-02-23T15:07:19.289Z,5
2017-02-23T15:12:36.268Z,5
2017-02-23T15:17:52.004Z,5
2017-02-23T15:23:09.012Z,5
2017-02-23T15:28:26.216Z,15
2017-02-23T15:33:42.712Z,5
2017-02-23T15:39:00.027Z,15
2017-02-23T15:44:15.710Z,5
2017-02-23T15:49:31.547Z,5
2017-02-23T15:54:47.535Z,5
2017-02-23T16:00:03.319Z,5
2017-02-23T16:05:18.956Z,5
2017-02-23T16:10:36.548Z,5
2017-02-23T16:15:52.483Z,5
2017-02-23T16:21:08.093Z,5
2017-02-23T16:26:25.028Z,5
2017-02-23T16:31:42.267Z,5
2017-02-23T16:36:57.985Z,5
2017-02-23T16:42:19.304Z,5
2017-02-23T16:47:36.775Z,5
2017-02-23T16:52:54.429Z,5
2017-02-23T16:58:12.482Z,0
2017-02-23T17:03:30.275Z,0
2017-02-23T17:08:47.298Z,0
2017-02-23T17:14:04.102Z,0
2017-02-23T17:19:20.104Z,0
2017-02-23T17:24:38.527Z,0
2017-02-23T17:29:54.229Z,0
2017-02-23T17:35:11.014Z,0
2017-02-23T17:40:28.977Z,0
2017-02-23T17:45:47.083Z,0
2017-02-23T17:51:02.987Z,0
2017-02-23T17:56:18.653Z,0
2017-02-23T18:01:34.556Z,0
2017-02-23T18:06:50.582Z,0
2017-02-23T18:12:07.648Z,0
2017-02-23T18:17:24.142Z,0
2017-02-23T18:22:41.757Z,0
2017-02-23T18:27:57.465Z,0
2017-02-23T18:33:13.182Z,0
2017-02-23T18:38:29.877Z,0
2017-02-23T18:43:46.440Z,0
2017-02-23T18:49:02.223Z,0
2017-02-23T18:54:18.751Z,0
2017-02-23T18:59:35.604Z,0
2017-02-23T19:04:53.052Z,0
2017-02-23T19:10:11.957Z,0
2017-02-23T19:15:28.922Z,0
2017-02-23T19:20:45.196Z,0
2017-02-23T19:26:00.867Z,0
2017-02-23T19:31:16.733Z,0
2017-02-23T19:36:33.580Z,0
2017-02-23T19:41:52.213Z,0
2017-02-23T19:47:09.343Z,0
2017-02-23T19:52:26.074Z,0
2017-02-23T19:57:45.309Z,0
2017-02-23T20:03:01.488Z,0
2017-02-23T20:08:18.787Z,0
2017-02-23T20:13:36.153Z,0
2017-02-23T20:18:52.757Z,0
2017-02-23T20:24:10.598Z,0
2017-02-23T20:29:29.083Z,0
2017-02-23T20:34:49.423Z,0
2017-02-23T20:40:05.115Z,0
2017-02-23T20:45:23.026Z,0
2017-02-23T20:50:40.321Z,0
2017-02-23T20:55:57.340Z,0
2017-02-23T21:01:14.440Z,0
2017-02-23T21:06:31.938Z,0
2017-02-23T21:11:50.705Z,0
2017-02-23T21:17:07.451Z,0
2017-02-23T21:22:24.954Z,0
2017-02-23T21:27:41.940Z,0
2017-02-23T21:32:57.609Z,0
2017-02-23T21:38:15.469Z,0
2017-02-23T21:43:33.345Z,0
2017-02-23T21:48:50.821Z,0
2017-02-23T21:54:09.023Z,0
2017-02-23T21:59:26.519Z,0
2017-02-23T22:04:44.404Z,0
2017-02-23T22:10:00.573Z,0
2017-02-23T22:15:17.525Z,0
2017-02-23T22:20:36.518Z,0
2017-02-23T22:25:54.789Z,0
2017-02-23T22:31:10.897Z,0
2017-02-23T22:36:31.204Z,0
2017-02-23T22:41:47.797Z,0
2017-02-23T22:47:06.089Z,0
2017-02-23T22:52:23.909Z,0
2017-02-23T22:57:40.622Z,0
2017-02-23T23:02:57.139Z,0
2017-02-23T23:08:14.323Z,0
2017-02-23T23:13:32.128Z,0
2017-02-23T23:18:49.416Z,0
2017-02-23T23:24:05.070Z,0
2017-02-23T23:29:21.149Z,0
2017-02-23T23:34:37.445Z,0
2017-02-23T23:39:53.247Z,0
2017-02-23T23:45:09.197Z,0
2017-02-23T23:50:28.457Z,0
2017-02-23T23:55:44.032Z,0
